This is the latest recevied weather packets stored in our database for station/object DK7AK. If no packets are shown the sender has not sent any weather packets the latest 10 day(s).
| Time | Temp. | Humidity | Pressure | Rain* | Wind** | Luminosity | Snow |
|---|---|---|---|---|---|---|---|
| 1777395304 | 17.78° C | 31% | 1011.6 hPa | 0 mm | - | - | - |
| 1777394703 | 17.78° C | 30% | 1011.6 hPa | 0 mm | - | - | - |
| 1777394404 | 17.78° C | 30% | 1011.5 hPa | 0 mm | - | - | - |
| 1777391405 | 18.33° C | 30% | 1011.5 hPa | 0 mm | - | - | - |
| 1777390205 | 18.89° C | 30% | 1011.5 hPa | 0 mm | - | - | - |
| 1777383604 | 19.44° C | 36% | 1011.4 hPa | 0 mm | - | - | - |
| 1777381203 | 22.22° C | 30% | 1011.2 hPa | 0 mm | - | - | - |
| 1777380304 | 21.67° C | 26% | 1011.6 hPa | 0 mm | - | - | - |
| 1777380004 | 21.11° C | 25% | 1011.6 hPa | 0 mm | - | - | - |
| 1777379403 | 21.11° C | 26% | 1011.5 hPa | 0 mm | - | - | - |
| 1777378803 | 21.11° C | 27% | 1011.6 hPa | 0 mm | - | - | - |
| 1777377603 | 20.56° C | 27% | 1011.4 hPa | 0 mm | - | - | - |
| 1777366804 | 18.33° C | 30% | 1011.9 hPa | 0 mm | - | - | - |
| 1777364404 | 17.22° C | 36% | 1012.1 hPa | 0 mm | - | - | - |
| 1777362604 | 13.33° C | 52% | 1012 hPa | 0 mm | - | - | - |
| 1777361404 | 12.22° C | 60% | 1011.9 hPa | 0 mm | - | - | - |
| 1777323003 | 11.11° C | 51% | 1011.4 hPa | 0 mm | - | - | - |
| 1777322703 | 11.11° C | 51% | 1011.6 hPa | 0 mm | - | - | - |
| 1777322104 | 11.11° C | 50% | 1011.5 hPa | 0 mm | - | - | - |
| 1777319103 | 12.22° C | 49% | 1011.4 hPa | 0 mm | - | - | - |
| 1777315503 | 13.33° C | 41% | 1011.3 hPa | 0 mm | - | - | - |
| 1777311904 | 16.67° C | 33% | 1011.2 hPa | 0 mm | - | - | - |
| 1777305304 | 19.44° C | 25% | 1011.3 hPa | 0 mm | - | - | - |
| 1777302304 | 20.56° C | 26% | 1011.5 hPa | 0 mm | - | - | - |
| 1777301704 | 20° C | 25% | 1011.6 hPa | 0 mm | - | - | - |
* Rain latest hour (hover to see other rain measurements)
** Current wind speed in m/s (hover to see current wind gust speed)